createdAt,value
2018-12-18T00:00:15.884Z,97.80
2018-12-18T00:02:50.609Z,97.60
2018-12-18T00:05:27.076Z,97.60
2018-12-18T00:07:56.220Z,97.60
2018-12-18T00:10:29.556Z,97.90
2018-12-18T00:12:58.726Z,97.50
2018-12-18T00:15:27.884Z,97.30
2018-12-18T00:17:57.012Z,97.30
2018-12-18T00:20:26.168Z,97.40
2018-12-18T00:22:55.312Z,97.20
2018-12-18T00:25:24.489Z,97.20
2018-12-18T00:27:53.627Z,97.10
2018-12-18T00:30:22.725Z,97.00
2018-12-18T00:32:51.870Z,97.10
2018-12-18T00:35:21.026Z,97.00
2018-12-18T00:37:50.164Z,96.80
2018-12-18T00:40:19.302Z,96.80
2018-12-18T00:42:48.391Z,96.70
2018-12-18T00:45:17.586Z,96.70
2018-12-18T00:47:46.805Z,96.70
2018-12-18T00:50:15.990Z,96.50
2018-12-18T00:52:45.183Z,96.60
2018-12-18T00:55:14.319Z,96.60
2018-12-18T00:57:43.444Z,96.60
2018-12-18T01:00:13.143Z,96.60
2018-12-18T01:02:42.357Z,96.50
2018-12-18T01:05:11.505Z,96.50
2018-12-18T01:07:40.713Z,96.60
2018-12-18T01:10:10.134Z,96.60
2018-12-18T01:12:39.280Z,96.60
2018-12-18T01:15:08.548Z,96.50
2018-12-18T01:17:37.671Z,96.40
2018-12-18T01:20:06.957Z,96.30
2018-12-18T01:22:37.312Z,96.20
2018-12-18T01:25:06.475Z,96.20
2018-12-18T01:27:35.568Z,96.30
2018-12-18T01:30:05.092Z,96.40
2018-12-18T01:32:34.220Z,96.20
2018-12-18T01:35:03.474Z,96.10
2018-12-18T01:37:33.196Z,96.20
2018-12-18T01:40:02.348Z,96.30
2018-12-18T01:42:31.501Z,96.20
2018-12-18T01:45:00.659Z,96.20
2018-12-18T01:47:29.817Z,96.20
2018-12-18T01:49:59.080Z,96.10
2018-12-18T01:52:28.223Z,96.10
2018-12-18T01:54:57.487Z,96.10
2018-12-18T01:57:26.627Z,96.10
2018-12-18T01:59:55.753Z,96.10
2018-12-18T02:02:24.959Z,96.10
2018-12-18T02:04:54.317Z,96.10
2018-12-18T02:07:23.577Z,96.10
2018-12-18T02:09:52.724Z,95.80
2018-12-18T02:12:21.809Z,95.90
2018-12-18T02:14:51.092Z,95.90
2018-12-18T02:17:20.215Z,95.90
2018-12-18T02:19:50.454Z,95.80
2018-12-18T02:22:19.586Z,95.90
2018-12-18T02:24:48.727Z,96.30
2018-12-18T02:27:17.854Z,95.90
2018-12-18T02:29:47.057Z,95.70
2018-12-18T02:32:16.171Z,95.80
2018-12-18T02:34:45.322Z,95.80
2018-12-18T02:37:14.515Z,95.60
2018-12-18T02:39:43.635Z,95.60
2018-12-18T02:42:12.751Z,95.70
2018-12-18T02:44:41.873Z,95.80
2018-12-18T02:47:10.994Z,95.60
2018-12-18T02:49:40.145Z,95.90
2018-12-18T02:52:09.390Z,95.50
2018-12-18T02:54:38.505Z,95.50
2018-12-18T02:57:07.744Z,95.40
2018-12-18T02:59:36.899Z,95.40
2018-12-18T03:02:06.024Z,95.30
2018-12-18T03:04:35.164Z,95.20
2018-12-18T03:07:04.337Z,95.00
2018-12-18T03:09:33.471Z,95.00
2018-12-18T03:12:02.605Z,95.20
2018-12-18T03:14:31.759Z,95.20
2018-12-18T03:17:00.885Z,95.20
2018-12-18T03:19:30.043Z,95.20
2018-12-18T03:21:59.179Z,95.10
2018-12-18T03:24:28.360Z,95.20
2018-12-18T03:26:57.548Z,95.10
2018-12-18T03:29:28.158Z,95.20
2018-12-18T03:32:00.904Z,95.30
2018-12-18T03:34:30.171Z,95.30
2018-12-18T03:36:59.306Z,95.40
2018-12-18T03:39:28.413Z,95.40
2018-12-18T03:41:57.535Z,95.20
2018-12-18T03:44:26.655Z,94.90
2018-12-18T03:46:55.881Z,94.90
2018-12-18T03:49:25.059Z,94.80
2018-12-18T03:51:54.373Z,94.70
2018-12-18T03:54:23.746Z,94.60
2018-12-18T03:56:52.965Z,94.50
2018-12-18T03:59:22.189Z,94.40
2018-12-18T04:01:51.369Z,94.30
2018-12-18T04:04:20.486Z,94.00
2018-12-18T04:06:49.645Z,93.90
2018-12-18T04:09:18.789Z,93.80
2018-12-18T04:11:53.347Z,93.50
2018-12-18T04:14:22.483Z,93.50
2018-12-18T04:16:51.648Z,93.40
2018-12-18T04:19:20.908Z,93.30
2018-12-18T04:21:50.147Z,93.30
2018-12-18T04:24:19.284Z,93.10
2018-12-18T04:26:49.409Z,93.30
2018-12-18T04:29:18.532Z,93.60
2018-12-18T04:31:47.667Z,93.20
2018-12-18T04:34:16.825Z,93.10
2018-12-18T04:36:45.972Z,93.10
2018-12-18T04:39:15.071Z,93.00
2018-12-18T04:41:44.265Z,92.90
2018-12-18T04:44:13.400Z,92.80
2018-12-18T04:46:42.573Z,92.80
2018-12-18T04:49:11.734Z,92.70
2018-12-18T04:51:40.916Z,92.60
2018-12-18T04:54:10.047Z,92.50
2018-12-18T04:56:39.320Z,92.70
2018-12-18T04:59:08.454Z,92.40
2018-12-18T05:01:37.628Z,92.70
2018-12-18T05:04:06.807Z,92.50
2018-12-18T05:06:35.955Z,92.50
2018-12-18T05:09:08.436Z,92.60
2018-12-18T05:11:37.964Z,92.60
2018-12-18T05:14:07.196Z,92.50
2018-12-18T05:16:36.341Z,92.60
2018-12-18T05:19:05.452Z,92.40
2018-12-18T05:21:34.611Z,92.60
2018-12-18T05:24:04.024Z,92.70
2018-12-18T05:26:33.187Z,92.80
2018-12-18T05:29:02.325Z,92.90
2018-12-18T05:31:31.481Z,92.80
2018-12-18T05:34:00.626Z,92.70
2018-12-18T05:36:29.776Z,92.30
2018-12-18T05:38:58.930Z,92.00
2018-12-18T05:41:28.112Z,92.00
2018-12-18T05:43:58.295Z,92.10
2018-12-18T05:46:27.438Z,92.10
2018-12-18T05:48:56.578Z,92.30
2018-12-18T05:51:25.741Z,92.20
2018-12-18T05:53:55.117Z,92.30
2018-12-18T05:56:24.306Z,92.40
2018-12-18T05:58:53.579Z,92.70
2018-12-18T06:01:22.916Z,92.40
2018-12-18T06:03:52.089Z,92.40
2018-12-18T06:06:21.313Z,92.50
2018-12-18T06:08:50.417Z,92.90
2018-12-18T06:11:19.569Z,92.70
2018-12-18T06:13:48.669Z,92.60
2018-12-18T06:16:17.817Z,92.60
2018-12-18T06:18:46.964Z,92.60
2018-12-18T06:21:16.136Z,92.20
2018-12-18T06:23:45.241Z,92.10
2018-12-18T06:26:14.413Z,92.00
2018-12-18T06:28:43.503Z,91.90
2018-12-18T06:31:12.657Z,91.90
2018-12-18T06:33:41.819Z,91.80
2018-12-18T06:36:11.003Z,92.00
2018-12-18T06:38:40.162Z,92.00
2018-12-18T06:41:09.257Z,92.10
2018-12-18T06:43:38.365Z,92.20
2018-12-18T06:46:07.492Z,92.20
2018-12-18T06:48:36.805Z,92.30
2018-12-18T06:51:05.997Z,92.40
2018-12-18T06:53:35.166Z,92.60
2018-12-18T06:56:04.297Z,92.60
2018-12-18T06:58:33.437Z,92.60
2018-12-18T07:01:02.681Z,92.60
2018-12-18T07:03:32.033Z,92.70
2018-12-18T07:06:01.281Z,92.50
2018-12-18T07:08:30.541Z,92.40
2018-12-18T07:10:59.707Z,92.40
2018-12-18T07:13:28.809Z,92.40
2018-12-18T07:15:58.106Z,92.60
2018-12-18T07:18:27.374Z,92.70
2018-12-18T07:20:56.636Z,92.80
2018-12-18T07:23:25.731Z,92.70
2018-12-18T07:25:54.984Z,92.60
2018-12-18T07:28:24.139Z,92.70
2018-12-18T07:30:53.636Z,92.80
2018-12-18T07:33:22.901Z,92.70
2018-12-18T07:35:52.005Z,92.70
2018-12-18T07:38:21.262Z,92.50
2018-12-18T07:40:50.401Z,92.40
2018-12-18T07:43:19.617Z,92.70
2018-12-18T07:45:48.803Z,92.90
2018-12-18T07:48:18.223Z,92.70
2018-12-18T07:50:47.476Z,92.20
2018-12-18T07:53:16.669Z,91.90
2018-12-18T07:55:45.842Z,91.90
2018-12-18T07:58:15.104Z,91.80
2018-12-18T08:00:44.330Z,91.80
2018-12-18T08:03:13.589Z,91.90
2018-12-18T08:05:42.855Z,91.70
2018-12-18T08:08:12.103Z,91.60
2018-12-18T08:10:41.305Z,91.60
2018-12-18T08:13:10.581Z,92.00
2018-12-18T08:15:39.811Z,92.00
2018-12-18T08:18:09.051Z,92.70
2018-12-18T08:20:38.218Z,92.60
2018-12-18T08:23:07.610Z,92.80
2018-12-18T08:25:36.732Z,92.80
2018-12-18T08:28:05.864Z,92.70
2018-12-18T08:30:35.003Z,92.60
2018-12-18T08:33:04.380Z,92.50
2018-12-18T08:35:36.461Z,92.30
2018-12-18T08:38:04.832Z,92.30
2018-12-18T08:40:34.058Z,92.20
2018-12-18T08:43:03.230Z,92.30
2018-12-18T08:45:32.439Z,92.00
2018-12-18T08:48:02.667Z,91.90
2018-12-18T08:50:31.765Z,91.60
2018-12-18T08:53:00.989Z,91.90
2018-12-18T08:55:30.193Z,92.10
2018-12-18T08:57:59.374Z,91.70
2018-12-18T09:00:28.689Z,91.80
2018-12-18T09:02:57.838Z,91.70
2018-12-18T09:05:27.149Z,91.40
2018-12-18T09:07:56.397Z,91.60
2018-12-18T09:10:25.854Z,90.90
2018-12-18T09:12:56.415Z,90.90
2018-12-18T09:15:31.129Z,91.00
2018-12-18T09:18:00.263Z,90.60
2018-12-18T09:20:29.709Z,90.80
2018-12-18T09:22:58.861Z,90.70
2018-12-18T09:25:28.013Z,90.60
2018-12-18T09:27:57.303Z,90.80
2018-12-18T09:30:26.474Z,90.90
2018-12-18T09:32:55.724Z,90.80
2018-12-18T09:35:24.929Z,90.60
2018-12-18T09:37:59.339Z,88.80
2018-12-18T09:40:32.733Z,88.30
2018-12-18T09:44:07.925Z,85.80
2018-12-18T09:46:37.195Z,81.10
2018-12-18T09:49:06.374Z,78.80
2018-12-18T09:51:35.686Z,78.00
2018-12-18T09:54:04.905Z,77.70
2018-12-18T09:56:38.483Z,78.10
2018-12-18T09:59:07.604Z,77.70
2018-12-18T10:01:36.955Z,78.10
2018-12-18T10:04:06.145Z,79.10
2018-12-18T10:06:35.405Z,80.00
2018-12-18T10:09:09.745Z,79.70
2018-12-18T10:11:38.655Z,79.60
2018-12-18T10:14:07.837Z,79.60
2018-12-18T10:16:37.213Z,79.50
2018-12-18T10:19:06.487Z,80.60
2018-12-18T10:21:35.659Z,81.20
2018-12-18T10:24:05.440Z,81.90
2018-12-18T10:26:34.678Z,82.40
2018-12-18T10:29:03.760Z,84.10
2018-12-18T10:31:32.945Z,84.60
2018-12-18T10:34:02.263Z,85.80
2018-12-18T10:36:31.589Z,86.40
2018-12-18T10:39:00.845Z,86.80
2018-12-18T10:41:30.131Z,87.30
2018-12-18T10:43:59.384Z,88.20
2018-12-18T10:46:28.573Z,88.70
2018-12-18T10:48:57.849Z,89.70
2018-12-18T10:51:27.010Z,89.10
2018-12-18T10:53:56.345Z,88.60
2018-12-18T10:56:25.572Z,88.90
2018-12-18T10:58:54.676Z,90.10
2018-12-18T11:01:29.250Z,90.30
2018-12-18T11:03:58.386Z,90.70
2018-12-18T11:06:27.673Z,91.00
2018-12-18T11:08:56.984Z,90.60
2018-12-18T11:11:26.101Z,90.90
2018-12-18T11:13:55.421Z,91.10
2018-12-18T11:16:24.683Z,90.80
2018-12-18T11:18:54.186Z,90.40
2018-12-18T11:21:24.140Z,90.90
2018-12-18T11:23:53.434Z,90.60
2018-12-18T11:26:22.610Z,90.90
2018-12-18T11:28:51.813Z,91.60
2018-12-18T11:31:21.140Z,91.60
2018-12-18T11:33:50.359Z,91.10
2018-12-18T11:36:20.065Z,91.80
2018-12-18T11:38:50.205Z,92.40
2018-12-18T11:41:19.447Z,92.40
2018-12-18T11:43:48.603Z,92.50
2018-12-18T11:46:17.850Z,92.90
2018-12-18T11:48:47.213Z,92.50
2018-12-18T11:51:16.365Z,92.50
2018-12-18T11:53:45.604Z,91.50
2018-12-18T11:56:14.711Z,91.80
2018-12-18T11:58:44.098Z,91.50
2018-12-18T12:01:13.305Z,91.60
2018-12-18T12:03:42.557Z,92.20
2018-12-18T12:06:13.639Z,92.10
2018-12-18T12:08:49.551Z,92.20
2018-12-18T12:11:18.802Z,92.10
2018-12-18T12:13:47.913Z,92.10
2018-12-18T12:16:17.299Z,91.80
2018-12-18T12:18:46.567Z,91.80
2018-12-18T12:21:15.830Z,91.80
2018-12-18T12:23:45.025Z,91.80
2018-12-18T12:26:19.658Z,91.70
2018-12-18T12:28:48.817Z,91.50
2018-12-18T12:31:18.053Z,91.70
2018-12-18T12:33:47.306Z,91.80
2018-12-18T12:36:16.770Z,91.40
2018-12-18T12:38:45.925Z,91.50
2018-12-18T12:41:15.707Z,91.00
2018-12-18T12:43:45.062Z,90.90
2018-12-18T12:46:15.241Z,90.90
2018-12-18T12:48:49.768Z,91.30
2018-12-18T12:51:19.240Z,88.50
2018-12-18T12:53:48.480Z,85.50
2018-12-18T12:56:17.614Z,86.10
2018-12-18T13:00:16.340Z,87.10
2018-12-18T13:02:45.592Z,88.80
2018-12-18T13:05:14.792Z,89.00
2018-12-18T13:07:44.015Z,89.10
2018-12-18T13:10:13.227Z,89.80
2018-12-18T13:12:42.724Z,90.30
2018-12-18T13:15:23.727Z,89.90
2018-12-18T13:38:05.727Z,90.20
2018-12-18T13:40:52.434Z,89.40
2018-12-18T13:43:23.534Z,90.00
2018-12-18T13:46:07.814Z,90.60
2018-12-18T13:48:57.009Z,90.80
2018-12-18T13:51:40.321Z,90.80
2018-12-18T13:54:27.405Z,90.60
2018-12-18T13:57:08.542Z,90.60
2018-12-18T14:00:03.488Z,90.90
2018-12-18T14:02:49.197Z,91.10
2018-12-18T14:05:30.639Z,91.10
2018-12-18T14:08:11.712Z,91.20
2018-12-18T14:10:52.762Z,91.30
2018-12-18T14:13:27.753Z,91.40
2018-12-18T14:16:04.063Z,91.20
2018-12-18T14:18:48.164Z,91.30
2018-12-18T14:21:35.785Z,91.60
2018-12-18T14:24:05.888Z,91.70
2018-12-18T14:26:35.125Z,92.00
2018-12-18T14:29:04.495Z,91.60
2018-12-18T14:31:33.593Z,91.60
2018-12-18T14:34:02.993Z,91.40
2018-12-18T14:36:32.235Z,91.60
2018-12-18T14:39:01.423Z,91.80
2018-12-18T14:41:30.631Z,91.90
2018-12-18T14:43:59.853Z,91.80
2018-12-18T14:46:29.083Z,92.00
2018-12-18T14:48:58.491Z,92.20
2018-12-18T14:51:27.740Z,92.30
2018-12-18T14:53:56.954Z,92.50
2018-12-18T14:56:26.287Z,92.50
2018-12-18T14:58:55.451Z,92.40
2018-12-18T15:01:24.645Z,92.10
2018-12-18T15:03:53.796Z,92.10
2018-12-18T15:06:23.082Z,92.20
2018-12-18T15:09:08.891Z,92.60
2018-12-18T15:11:50.884Z,92.70
2018-12-18T15:14:39.566Z,92.40
2018-12-18T15:56:14.745Z,92.60
2018-12-18T15:58:55.880Z,94.00
2018-12-18T16:15:15.414Z,93.90
2018-12-18T16:21:07.200Z,94.10
2018-12-18T16:23:56.902Z,94.00
2018-12-18T16:27:19.935Z,94.20
2018-12-18T16:31:37.209Z,94.20
2018-12-18T16:34:42.631Z,94.30
2018-12-18T16:37:25.770Z,93.70
2018-12-18T16:40:02.166Z,93.90
2018-12-18T16:42:50.209Z,94.20
2018-12-18T16:45:29.019Z,94.30
2018-12-18T16:47:59.222Z,94.00
2018-12-18T16:50:28.592Z,93.80
2018-12-18T16:52:58.541Z,93.60
2018-12-18T16:55:28.285Z,93.30
2018-12-18T16:57:58.083Z,93.50
2018-12-18T17:00:27.865Z,93.40
2018-12-18T17:02:57.414Z,93.50
2018-12-18T17:05:26.592Z,93.70
2018-12-18T17:07:55.713Z,93.50
2018-12-18T17:10:24.833Z,93.60
2018-12-18T17:12:57.053Z,93.50
2018-12-18T17:15:35.873Z,93.80
2018-12-18T17:18:05.770Z,93.80
2018-12-18T17:20:34.947Z,94.40
2018-12-18T17:23:04.150Z,94.20
2018-12-18T17:25:33.599Z,94.30
2018-12-18T17:28:02.870Z,93.60
2018-12-18T17:30:32.018Z,93.30
2018-12-18T17:33:01.169Z,93.40
2018-12-18T17:35:30.361Z,93.40
2018-12-18T17:37:59.654Z,93.40
2018-12-18T17:40:28.998Z,93.40
2018-12-18T17:42:58.187Z,93.70
2018-12-18T17:45:27.346Z,94.00
2018-12-18T17:47:56.493Z,93.90
2018-12-18T17:50:25.645Z,94.10
2018-12-18T17:52:54.816Z,94.20
2018-12-18T17:55:23.955Z,94.40
2018-12-18T17:57:53.115Z,94.50
2018-12-18T18:00:22.323Z,94.20
2018-12-18T18:02:51.439Z,94.20
2018-12-18T18:05:20.639Z,94.40
2018-12-18T18:07:49.933Z,94.00
2018-12-18T18:10:19.087Z,94.10
2018-12-18T18:12:50.212Z,94.20
2018-12-18T18:15:19.655Z,94.40
2018-12-18T18:19:18.445Z,94.70
2018-12-18T18:21:47.617Z,95.00
2018-12-18T18:24:16.783Z,95.20
2018-12-18T18:26:45.947Z,95.40
2018-12-18T18:29:15.113Z,95.10
2018-12-18T18:31:44.317Z,95.30
2018-12-18T18:34:13.423Z,95.40
2018-12-18T18:36:42.532Z,95.60
2018-12-18T18:39:11.811Z,95.50
2018-12-18T18:41:40.931Z,95.50
2018-12-18T18:44:10.127Z,95.60
2018-12-18T18:46:39.502Z,95.70
2018-12-18T18:49:08.678Z,95.90
2018-12-18T18:51:37.891Z,95.50
2018-12-18T18:54:07.259Z,95.60
2018-12-18T18:56:36.458Z,95.50
2018-12-18T18:59:05.612Z,95.40
2018-12-18T19:01:34.824Z,95.40
2018-12-18T19:04:04.349Z,95.30
2018-12-18T19:06:33.647Z,95.40
2018-12-18T19:09:06.373Z,95.40
2018-12-18T19:11:35.563Z,95.40
2018-12-18T19:14:05.299Z,95.30
2018-12-18T19:16:34.637Z,95.30
2018-12-18T19:19:04.081Z,95.20
2018-12-18T19:21:33.283Z,95.40
2018-12-18T19:24:02.421Z,95.40
2018-12-18T19:26:31.675Z,95.40
2018-12-18T19:29:00.914Z,95.30
2018-12-18T19:31:30.092Z,95.30
2018-12-18T19:33:59.323Z,95.40
2018-12-18T19:36:28.625Z,95.30
2018-12-18T19:38:57.809Z,95.30
2018-12-18T19:41:26.935Z,95.30
2018-12-18T19:43:56.073Z,95.20
2018-12-18T19:46:25.338Z,95.10
2018-12-18T19:48:54.525Z,95.00
2018-12-18T19:51:23.818Z,94.90
2018-12-18T19:53:52.997Z,94.80
2018-12-18T19:56:23.253Z,94.80
2018-12-18T19:58:52.466Z,95.20
2018-12-18T20:01:21.626Z,94.80
2018-12-18T20:03:50.777Z,94.80
2018-12-18T20:06:20.233Z,94.80
2018-12-18T20:08:49.312Z,94.80
2018-12-18T20:11:18.604Z,94.80
2018-12-18T20:13:47.804Z,94.90
2018-12-18T20:16:16.944Z,94.90
2018-12-18T20:18:46.116Z,94.70
2018-12-18T20:21:16.674Z,95.00
2018-12-18T20:23:45.945Z,95.00
2018-12-18T20:26:15.265Z,95.00
2018-12-18T20:28:44.482Z,95.10
2018-12-18T20:31:13.669Z,95.00
2018-12-18T20:33:42.932Z,94.90
2018-12-18T20:36:12.153Z,95.00
2018-12-18T20:38:41.365Z,95.00
2018-12-18T20:41:10.540Z,95.10
2018-12-18T20:43:39.834Z,95.20
2018-12-18T20:46:09.115Z,95.20
2018-12-18T20:48:39.671Z,95.30
2018-12-18T20:51:09.092Z,95.30
2018-12-18T20:53:38.327Z,95.30
2018-12-18T20:56:07.511Z,95.30
2018-12-18T20:58:36.697Z,95.30
2018-12-18T21:01:05.901Z,95.30
2018-12-18T21:03:34.999Z,95.30
2018-12-18T21:06:04.153Z,95.30
2018-12-18T21:08:33.295Z,95.30
2018-12-18T21:11:02.529Z,95.20
2018-12-18T21:13:31.987Z,95.20
2018-12-18T21:16:01.185Z,95.30
2018-12-18T21:18:30.883Z,95.20
2018-12-18T21:21:00.116Z,95.30
2018-12-18T21:23:29.378Z,95.50
2018-12-18T21:25:58.597Z,95.70
2018-12-18T21:28:27.854Z,95.90
2018-12-18T21:30:57.070Z,96.20
2018-12-18T21:33:26.243Z,96.40
2018-12-18T21:35:55.385Z,96.40
2018-12-18T21:38:30.294Z,96.60
2018-12-18T21:40:55.721Z,96.60
2018-12-18T21:43:24.907Z,96.60
2018-12-18T21:45:54.057Z,96.60
2018-12-18T21:48:23.214Z,96.60
2018-12-18T21:50:52.468Z,96.60
2018-12-18T21:53:21.660Z,96.70
2018-12-18T21:55:50.829Z,96.80
2018-12-18T21:58:19.985Z,96.80
2018-12-18T22:00:49.148Z,96.80
2018-12-18T22:03:18.331Z,96.90
2018-12-18T22:05:47.603Z,96.60
2018-12-18T22:08:16.709Z,96.90
2018-12-18T22:10:45.901Z,96.90
2018-12-18T22:13:15.061Z,96.90
2018-12-18T22:15:44.209Z,96.90
2018-12-18T22:18:13.368Z,97.00
2018-12-18T22:20:42.567Z,96.90
2018-12-18T22:23:11.704Z,96.90
2018-12-18T22:25:40.909Z,97.00
2018-12-18T22:28:11.070Z,97.10
2018-12-18T22:33:18.297Z,97.10
2018-12-18T22:35:47.746Z,97.20
2018-12-18T22:38:16.928Z,97.20
2018-12-18T22:40:46.078Z,97.10
2018-12-18T22:43:15.198Z,97.20
2018-12-18T22:45:45.114Z,97.10
2018-12-18T22:48:14.220Z,97.10
2018-12-18T22:50:43.410Z,97.10
2018-12-18T22:53:12.575Z,97.00
2018-12-18T22:55:44.858Z,97.00
2018-12-18T22:58:12.888Z,96.90
2018-12-18T23:00:47.770Z,96.80
2018-12-18T23:03:16.900Z,96.80
2018-12-18T23:05:46.116Z,96.70
2018-12-18T23:08:15.284Z,96.70
2018-12-18T23:10:44.421Z,96.60
2018-12-18T23:13:17.804Z,96.50
2018-12-18T23:15:46.952Z,96.20
2018-12-18T23:18:16.110Z,96.40
2018-12-18T23:20:45.295Z,96.30
2018-12-18T23:23:14.856Z,96.20
2018-12-18T23:25:44.068Z,95.90
2018-12-18T23:28:13.203Z,95.90
2018-12-18T23:30:43.747Z,95.90
2018-12-18T23:33:13.013Z,96.00
2018-12-18T23:35:42.260Z,95.90
2018-12-18T23:38:11.417Z,95.60
2018-12-18T23:40:40.579Z,95.60
2018-12-18T23:43:10.213Z,95.30
2018-12-18T23:45:39.372Z,95.40
2018-12-18T23:48:08.531Z,95.40
2018-12-18T23:50:37.736Z,95.40
2018-12-18T23:53:06.880Z,95.40
2018-12-18T23:55:36.044Z,95.20
2018-12-18T23:58:05.253Z,95.00
